createdAt,value
2022-11-29T00:01:09.914Z,71.89
2022-11-29T00:03:37.435Z,72.13
2022-11-29T00:06:10.925Z,71.92
2022-11-29T00:08:38.206Z,72.11
2022-11-29T00:11:06.919Z,71.81
2022-11-29T00:13:33.692Z,71.89
2022-11-29T00:16:09.322Z,71.93
2022-11-29T00:18:36.617Z,71.90
2022-11-29T00:21:07.947Z,71.77
2022-11-29T00:23:35.839Z,72.10
2022-11-29T00:26:07.384Z,71.96
2022-11-29T00:28:35.503Z,72.12
2022-11-29T00:31:17.488Z,71.98
2022-11-29T00:33:44.294Z,72.08
2022-11-29T00:36:11.561Z,71.67
2022-11-29T00:38:38.617Z,71.87
2022-11-29T00:41:05.769Z,72.19
2022-11-29T00:43:32.496Z,72.41
2022-11-29T00:45:59.513Z,72.34
2022-11-29T00:48:26.141Z,72.42
2022-11-29T00:50:52.919Z,72.65
2022-11-29T00:53:19.777Z,72.59
2022-11-29T00:55:51.085Z,72.64
2022-11-29T00:58:18.390Z,72.81
2022-11-29T01:00:45.486Z,72.79
2022-11-29T01:03:12.271Z,72.32
2022-11-29T01:05:39.072Z,72.64
2022-11-29T01:08:06.142Z,72.72
2022-11-29T01:10:32.978Z,72.66
2022-11-29T01:12:59.677Z,72.40
2022-11-29T01:15:26.863Z,72.62
2022-11-29T01:17:53.602Z,73.03
2022-11-29T01:20:20.810Z,72.41
2022-11-29T01:22:47.491Z,72.53
2022-11-29T01:25:14.886Z,72.56
2022-11-29T01:27:41.863Z,72.72
2022-11-29T01:30:10.377Z,72.62
2022-11-29T01:32:37.900Z,72.56
2022-11-29T01:35:06.109Z,72.34
2022-11-29T01:37:33.044Z,72.41
2022-11-29T01:40:00.837Z,72.35
2022-11-29T01:42:27.588Z,72.34
2022-11-29T01:45:04.590Z,72.39
2022-11-29T01:47:32.287Z,72.43
2022-11-29T01:49:59.797Z,72.37
2022-11-29T01:52:32.742Z,72.51
2022-11-29T01:55:03.913Z,73.04
2022-11-29T01:57:32.896Z,72.55
2022-11-29T02:00:06.896Z,73.01
2022-11-29T02:02:57.157Z,72.38
2022-11-29T02:05:26.605Z,72.64
2022-11-29T02:07:56.489Z,72.63
2022-11-29T02:10:32.685Z,72.40
2022-11-29T02:13:08.578Z,72.38
2022-11-29T02:15:46.316Z,72.34
2022-11-29T02:18:21.539Z,72.46
2022-11-29T02:21:42.158Z,72.28
2022-11-29T02:24:38.853Z,72.66
2022-11-29T02:27:20.824Z,72.59
2022-11-29T02:30:06.254Z,72.51
2022-11-29T02:33:04.154Z,72.10
2022-11-29T02:35:51.975Z,72.11
2022-11-29T02:38:26.785Z,72.28
2022-11-29T02:41:20.284Z,72.37
2022-11-29T02:43:53.142Z,72.59
2022-11-29T02:46:41.837Z,72.08
2022-11-29T02:49:16.813Z,72.51
2022-11-29T02:52:00.650Z,72.51
2022-11-29T02:54:50.183Z,72.64
2022-11-29T02:57:23.195Z,72.60
2022-11-29T03:00:06.681Z,72.56
2022-11-29T03:02:38.826Z,72.50
2022-11-29T03:05:23.870Z,72.03
2022-11-29T03:08:11.591Z,72.66
2022-11-29T03:11:00.184Z,72.31
2022-11-29T03:13:50.451Z,72.62
2022-11-29T03:16:38.320Z,72.28
2022-11-29T03:19:24.035Z,72.64
2022-11-29T03:22:12.764Z,72.81
2022-11-29T03:24:51.794Z,72.14
2022-11-29T03:27:29.093Z,72.15
2022-11-29T03:29:59.615Z,71.89
2022-11-29T03:32:39.532Z,71.83
2022-11-29T03:35:24.217Z,71.49
2022-11-29T03:38:05.359Z,71.23
2022-11-29T03:40:55.949Z,71.30
2022-11-29T03:43:30.559Z,71.56
2022-11-29T03:46:26.379Z,71.83
2022-11-29T03:49:00.412Z,71.61
2022-11-29T03:51:36.209Z,71.33
2022-11-29T03:54:10.275Z,70.97
2022-11-29T03:56:39.896Z,71.27
2022-11-29T03:59:37.149Z,71.12
2022-11-29T04:02:28.894Z,71.26
2022-11-29T04:05:01.657Z,71.14
2022-11-29T04:07:44.795Z,71.47
2022-11-29T04:10:34.260Z,71.28
2022-11-29T04:13:15.081Z,70.48
2022-11-29T04:15:41.745Z,70.97
2022-11-29T04:18:26.367Z,71.00
2022-11-29T04:21:30.571Z,71.27
2022-11-29T04:24:15.289Z,71.32
2022-11-29T04:26:56.949Z,70.84
2022-11-29T04:30:02.008Z,71.09
2022-11-29T04:32:56.928Z,70.95
2022-11-29T04:35:32.381Z,71.23
2022-11-29T04:38:27.475Z,71.21
2022-11-29T04:41:03.506Z,71.06
2022-11-29T04:43:48.649Z,71.29
2022-11-29T04:46:36.881Z,71.15
2022-11-29T04:49:17.115Z,71.30
2022-11-29T04:51:55.939Z,70.96
2022-11-29T04:54:38.143Z,70.99
2022-11-29T04:57:12.658Z,71.24
2022-11-29T04:59:46.434Z,70.95
2022-11-29T05:02:38.043Z,71.16
2022-11-29T05:05:20.816Z,71.01
2022-11-29T05:08:02.592Z,71.02
2022-11-29T05:10:38.991Z,70.49
2022-11-29T05:13:11.887Z,70.98
2022-11-29T05:15:54.597Z,70.67
2022-11-29T05:18:38.675Z,70.36
2022-11-29T05:21:13.478Z,70.59
2022-11-29T05:23:42.826Z,70.71
2022-11-29T05:26:14.380Z,70.22
2022-11-29T05:28:58.564Z,70.27
2022-11-29T05:31:34.264Z,70.26
2022-11-29T05:34:30.258Z,70.96
2022-11-29T05:37:09.189Z,70.72
2022-11-29T05:39:35.818Z,70.90
2022-11-29T05:42:27.923Z,70.88
2022-11-29T05:45:00.709Z,70.91
2022-11-29T05:47:54.754Z,70.55
2022-11-29T05:50:42.998Z,70.50
2022-11-29T05:53:28.035Z,70.82
2022-11-29T05:56:18.795Z,70.34
2022-11-29T05:58:50.935Z,70.08
2022-11-29T06:01:39.506Z,70.56
2022-11-29T06:04:21.594Z,70.52
2022-11-29T06:07:14.769Z,70.28
2022-11-29T06:10:11.701Z,70.60
2022-11-29T06:12:39.230Z,70.75
2022-11-29T06:15:46.342Z,70.32
2022-11-29T06:18:19.303Z,69.98
2022-11-29T06:21:01.892Z,69.90
2022-11-29T06:23:50.655Z,69.81
2022-11-29T06:26:36.017Z,69.81
2022-11-29T06:29:23.692Z,70.33
2022-11-29T06:32:01.703Z,70.22
2022-11-29T06:34:40.264Z,70.66
2022-11-29T06:37:23.415Z,70.62
2022-11-29T06:39:50.372Z,70.45
2022-11-29T06:42:17.267Z,70.68
2022-11-29T06:44:44.535Z,70.60
2022-11-29T06:47:50.429Z,70.67
2022-11-29T06:50:35.946Z,70.65
2022-11-29T06:53:20.661Z,70.80
2022-11-29T06:56:09.085Z,70.52
2022-11-29T06:58:50.243Z,70.87
2022-11-29T07:01:29.213Z,70.87
2022-11-29T07:04:13.805Z,70.84
2022-11-29T07:06:40.969Z,70.92
2022-11-29T07:09:15.497Z,70.79
2022-11-29T07:11:43.297Z,71.48
2022-11-29T07:14:10.669Z,71.00
2022-11-29T07:16:57.304Z,70.92
2022-11-29T07:19:50.837Z,70.43
2022-11-29T07:22:44.998Z,70.45
2022-11-29T07:25:30.664Z,70.57
2022-11-29T07:28:28.121Z,70.62
2022-11-29T07:31:32.711Z,70.29
2022-11-29T07:34:24.127Z,70.40
2022-11-29T07:37:14.735Z,70.29
2022-11-29T07:39:56.620Z,70.42
2022-11-29T07:42:41.936Z,70.37
2022-11-29T07:45:14.483Z,70.05
2022-11-29T07:47:41.150Z,70.05
2022-11-29T07:50:08.266Z,70.02
2022-11-29T07:52:35.200Z,70.08
2022-11-29T07:55:02.380Z,69.64
2022-11-29T07:57:29.092Z,70.08
2022-11-29T07:59:55.768Z,70.15
2022-11-29T08:02:29.946Z,70.21
2022-11-29T08:04:56.759Z,69.78
2022-11-29T08:07:23.800Z,69.93
2022-11-29T08:09:50.793Z,69.89
2022-11-29T08:12:17.494Z,70.28
2022-11-29T08:14:44.504Z,70.43
2022-11-29T08:17:11.404Z,70.59
2022-11-29T08:19:38.215Z,70.86
2022-11-29T08:22:05.052Z,71.31
2022-11-29T08:24:31.764Z,71.33
2022-11-29T08:26:58.464Z,71.74
2022-11-29T08:29:25.291Z,71.41
2022-11-29T08:31:53.397Z,71.10
2022-11-29T08:34:21.827Z,71.28
2022-11-29T08:36:49.189Z,71.01
2022-11-29T08:39:16.147Z,71.02
2022-11-29T08:41:42.866Z,70.23
2022-11-29T08:44:09.665Z,69.73
2022-11-29T08:46:55.031Z,69.71
2022-11-29T08:49:21.700Z,69.74
2022-11-29T08:51:48.369Z,69.14
2022-11-29T08:54:15.023Z,68.88
2022-11-29T08:59:28.439Z,68.39
2022-11-29T09:01:55.283Z,68.14
2022-11-29T09:04:21.932Z,68.67
2022-11-29T09:06:49.675Z,68.51
2022-11-29T09:09:16.561Z,68.70
2022-11-29T09:11:48.094Z,67.94
2022-11-29T09:14:17.042Z,66.82
2022-11-29T09:16:43.749Z,66.95
2022-11-29T09:19:13.359Z,67.21
2022-11-29T09:21:40.313Z,68.07
2022-11-29T09:24:07.090Z,67.73
2022-11-29T09:26:36.835Z,67.28
2022-11-29T09:29:05.814Z,66.56
2022-11-29T09:31:33.207Z,66.18
2022-11-29T09:34:00.124Z,65.88
2022-11-29T09:36:29.659Z,66.79
2022-11-29T09:38:57.868Z,66.34
2022-11-29T09:41:27.356Z,66.58
2022-11-29T09:44:11.018Z,66.41
2022-11-29T09:47:14.800Z,66.31
2022-11-29T09:49:51.906Z,66.67
2022-11-29T09:52:50.777Z,66.47
2022-11-29T09:55:36.123Z,66.13
2022-11-29T09:58:03.932Z,66.21
2022-11-29T10:00:35.651Z,66.49
2022-11-29T10:03:14.568Z,65.98
2022-11-29T10:05:49.893Z,66.11
2022-11-29T10:08:31.050Z,65.33
2022-11-29T10:11:13.096Z,66.26
2022-11-29T10:13:45.638Z,66.22
2022-11-29T10:16:35.445Z,66.51
2022-11-29T10:19:09.677Z,66.55
2022-11-29T10:21:41.727Z,66.39
2022-11-29T10:24:17.785Z,65.99
2022-11-29T10:26:45.643Z,65.62
2022-11-29T10:29:16.750Z,65.24
2022-11-29T10:31:46.956Z,64.51
2022-11-29T10:34:18.747Z,64.51
2022-11-29T10:36:48.307Z,64.40
2022-11-29T10:39:26.520Z,64.43
2022-11-29T10:42:02.305Z,63.93
2022-11-29T10:44:32.096Z,63.59
2022-11-29T10:47:04.454Z,62.63
2022-11-29T10:49:36.556Z,61.93
2022-11-29T10:52:03.294Z,62.07
2022-11-29T10:54:44.373Z,61.68
2022-11-29T10:57:17.350Z,61.05
2022-11-29T11:00:06.904Z,60.53
2022-11-29T11:02:34.551Z,60.16
2022-11-29T11:05:01.868Z,60.30
2022-11-29T11:07:36.009Z,60.82
2022-11-29T11:10:06.063Z,61.57
2022-11-29T11:12:34.568Z,62.65
2022-11-29T11:15:15.848Z,62.27
2022-11-29T11:17:59.475Z,61.88
2022-11-29T11:20:29.748Z,62.25
2022-11-29T11:23:02.706Z,62.77
2022-11-29T11:25:39.212Z,62.68
2022-11-29T11:28:18.077Z,62.04
2022-11-29T11:31:14.633Z,61.83
2022-11-29T11:33:41.269Z,61.02
2022-11-29T11:36:19.889Z,60.08
2022-11-29T11:39:22.654Z,60.06
2022-11-29T11:42:10.375Z,60.57
2022-11-29T11:44:49.286Z,61.22
2022-11-29T11:47:27.995Z,60.77
2022-11-29T11:50:07.657Z,61.74
2022-11-29T11:52:41.949Z,60.89
2022-11-29T11:55:39.256Z,61.49
2022-11-29T11:58:12.033Z,61.12
2022-11-29T12:01:03.010Z,61.28
2022-11-29T12:04:05.775Z,61.36
2022-11-29T12:06:54.820Z,60.88
2022-11-29T12:09:34.052Z,61.01
2022-11-29T12:12:31.810Z,61.14
2022-11-29T12:15:03.615Z,60.70
2022-11-29T12:17:49.098Z,60.46
2022-11-29T12:20:31.383Z,60.52
2022-11-29T12:23:13.143Z,60.34
2022-11-29T12:25:51.023Z,60.69
2022-11-29T12:28:20.811Z,61.13
2022-11-29T12:30:56.790Z,61.49
2022-11-29T12:34:06.839Z,60.90
2022-11-29T12:36:57.290Z,61.43
2022-11-29T12:40:09.124Z,60.85
2022-11-29T12:42:56.483Z,61.20
2022-11-29T12:45:32.313Z,61.40
2022-11-29T12:48:05.082Z,61.68
2022-11-29T12:50:51.110Z,61.88
2022-11-29T12:53:26.837Z,61.45
2022-11-29T12:56:29.827Z,61.32
2022-11-29T12:59:02.587Z,61.38
2022-11-29T13:01:42.625Z,62.01
2022-11-29T13:04:33.768Z,62.04
2022-11-29T13:07:23.993Z,61.85
2022-11-29T13:10:23.648Z,61.96
2022-11-29T13:13:08.080Z,61.92
2022-11-29T13:15:46.444Z,61.98
2022-11-29T13:18:52.106Z,61.59
2022-11-29T13:21:34.135Z,62.14
2022-11-29T13:24:18.750Z,62.38
2022-11-29T13:26:46.173Z,61.73
2022-11-29T13:29:16.699Z,60.69
2022-11-29T13:31:45.454Z,60.44
2022-11-29T13:34:27.490Z,60.54
2022-11-29T13:37:03.054Z,60.57
2022-11-29T13:39:55.445Z,61.07
2022-11-29T13:42:28.075Z,61.46
2022-11-29T13:45:06.595Z,61.53
2022-11-29T13:47:47.045Z,62.05
2022-11-29T13:50:44.898Z,62.60
2022-11-29T13:53:16.365Z,62.02
2022-11-29T13:56:00.282Z,62.14
2022-11-29T13:58:33.116Z,62.13
2022-11-29T14:01:06.465Z,62.02
2022-11-29T14:03:38.433Z,62.41
2022-11-29T14:06:11.999Z,62.50
2022-11-29T14:09:10.799Z,62.92
2022-11-29T14:11:44.282Z,62.53
2022-11-29T14:14:17.076Z,62.36
2022-11-29T14:16:43.686Z,62.55
2022-11-29T14:19:10.289Z,62.53
2022-11-29T14:21:55.895Z,62.97
2022-11-29T14:24:37.813Z,62.77
2022-11-29T14:27:07.721Z,63.00
2022-11-29T14:29:49.948Z,63.42
2022-11-29T14:32:56.276Z,62.97
2022-11-29T14:35:25.988Z,63.52
2022-11-29T14:38:19.851Z,63.26
2022-11-29T14:40:59.862Z,63.25
2022-11-29T14:43:34.138Z,63.58
2022-11-29T14:46:15.822Z,63.78
2022-11-29T14:48:57.631Z,64.42
2022-11-29T14:51:27.788Z,64.15
2022-11-29T14:54:18.248Z,64.16
2022-11-29T14:56:46.497Z,63.98
2022-11-29T14:59:52.431Z,63.83
2022-11-29T15:02:32.404Z,63.18
2022-11-29T15:05:13.319Z,62.90
2022-11-29T15:07:45.214Z,62.80
2022-11-29T15:10:21.422Z,63.13
2022-11-29T15:12:49.920Z,63.03
2022-11-29T15:15:36.471Z,63.02
2022-11-29T15:18:50.775Z,62.85
2022-11-29T15:21:32.621Z,62.78
2022-11-29T15:24:03.262Z,63.19
2022-11-29T15:26:30.997Z,63.17
2022-11-29T15:29:18.729Z,62.84
2022-11-29T15:31:51.220Z,63.06
2022-11-29T15:34:31.496Z,63.10
2022-11-29T15:36:59.301Z,63.15
2022-11-29T15:39:27.470Z,63.38
2022-11-29T15:42:00.393Z,63.36
2022-11-29T15:44:28.273Z,63.49
2022-11-29T15:46:54.990Z,63.75
2022-11-29T15:49:25.656Z,63.77
2022-11-29T15:52:08.357Z,63.45
2022-11-29T15:54:41.902Z,63.78
2022-11-29T15:57:18.167Z,63.92
2022-11-29T16:00:00.393Z,64.30
2022-11-29T16:02:31.515Z,64.41
2022-11-29T16:05:03.024Z,63.85
2022-11-29T16:07:34.257Z,64.26
2022-11-29T16:10:10.516Z,64.46
2022-11-29T16:12:53.799Z,64.56
2022-11-29T16:15:35.748Z,64.68
2022-11-29T16:18:04.906Z,64.81
2022-11-29T16:20:31.858Z,64.43
2022-11-29T16:23:13.474Z,65.17
2022-11-29T16:26:02.405Z,65.22
2022-11-29T16:28:34.578Z,65.56
2022-11-29T16:31:02.463Z,65.41
2022-11-29T16:33:29.168Z,65.57
2022-11-29T16:36:12.595Z,65.18
2022-11-29T16:38:45.479Z,65.30
2022-11-29T16:41:32.761Z,65.68
2022-11-29T16:44:03.190Z,65.40
2022-11-29T16:46:38.847Z,64.98
2022-11-29T16:49:34.996Z,65.69
2022-11-29T16:52:04.265Z,65.76
2022-11-29T16:54:35.297Z,65.74
2022-11-29T16:57:06.409Z,65.92
2022-11-29T16:59:35.148Z,66.05
2022-11-29T17:02:02.913Z,66.30
2022-11-29T17:04:29.624Z,66.55
2022-11-29T17:06:57.185Z,66.33
2022-11-29T17:09:31.204Z,66.18
2022-11-29T17:11:59.873Z,66.29
2022-11-29T17:14:31.624Z,65.96
2022-11-29T17:17:01.939Z,65.99
2022-11-29T17:19:29.194Z,65.86
2022-11-29T17:21:55.917Z,65.81
2022-11-29T17:24:23.678Z,65.89
2022-11-29T17:26:51.287Z,66.30
2022-11-29T17:29:18.631Z,65.37
2022-11-29T17:31:46.293Z,65.76
2022-11-29T17:34:13.664Z,65.65
2022-11-29T17:36:40.547Z,65.75
2022-11-29T17:39:08.175Z,65.62
2022-11-29T17:41:35.109Z,65.64
2022-11-29T17:44:03.034Z,64.99
2022-11-29T17:46:32.432Z,65.52
2022-11-29T17:49:00.574Z,65.63
2022-11-29T17:54:14.805Z,65.04
2022-11-29T17:56:41.431Z,64.61
2022-11-29T17:59:08.107Z,64.44
2022-11-29T18:01:36.195Z,65.04
2022-11-29T18:04:05.508Z,65.36
2022-11-29T18:06:38.368Z,64.72
2022-11-29T18:09:07.483Z,65.22
2022-11-29T18:11:48.153Z,65.04
2022-11-29T18:14:18.067Z,65.29
2022-11-29T18:16:45.405Z,65.28
2022-11-29T18:19:15.689Z,65.37
2022-11-29T18:21:42.654Z,65.33
2022-11-29T18:24:09.731Z,64.24
2022-11-29T18:26:38.027Z,64.40
2022-11-29T18:29:05.885Z,64.57
2022-11-29T18:31:35.548Z,64.62
2022-11-29T18:34:07.104Z,64.11
2022-11-29T18:36:37.122Z,64.40
2022-11-29T18:39:08.488Z,65.00
2022-11-29T18:41:36.248Z,65.22
2022-11-29T18:44:09.028Z,65.15
2022-11-29T18:46:37.749Z,64.99
2022-11-29T18:49:07.022Z,65.32
2022-11-29T18:51:35.013Z,65.06
2022-11-29T18:54:03.276Z,65.55
2022-11-29T18:56:32.693Z,65.85
2022-11-29T18:59:05.087Z,65.42
2022-11-29T19:01:35.307Z,65.42
2022-11-29T19:04:02.412Z,65.44
2022-11-29T19:06:38.538Z,65.49
2022-11-29T19:09:08.311Z,65.47
2022-11-29T19:11:35.623Z,65.63
2022-11-29T19:14:11.201Z,65.54
2022-11-29T19:16:39.957Z,66.17
2022-11-29T19:19:07.062Z,65.83
2022-11-29T19:21:34.666Z,65.57
2022-11-29T19:24:05.380Z,64.78
2022-11-29T19:26:33.569Z,64.90
2022-11-29T19:29:01.747Z,64.70
2022-11-29T19:31:28.893Z,64.51
2022-11-29T19:33:57.136Z,64.13
2022-11-29T19:36:29.694Z,63.88
2022-11-29T19:38:57.838Z,63.94
2022-11-29T19:41:27.938Z,64.29
2022-11-29T19:44:01.108Z,64.68
2022-11-29T19:46:30.697Z,64.50
2022-11-29T19:49:00.663Z,64.10
2022-11-29T19:51:28.822Z,64.58
2022-11-29T19:53:58.041Z,64.19
2022-11-29T19:56:25.400Z,64.70
2022-11-29T19:58:52.686Z,64.43
2022-11-29T20:01:22.953Z,64.07
2022-11-29T20:03:50.553Z,64.05
2022-11-29T20:06:18.928Z,64.25
2022-11-29T20:08:45.731Z,64.15
2022-11-29T20:11:13.954Z,64.36
2022-11-29T20:13:42.492Z,63.99
2022-11-29T20:16:12.694Z,63.81
2022-11-29T20:18:47.137Z,63.78
2022-11-29T20:21:31.213Z,63.90
2022-11-29T20:24:00.816Z,62.89
2022-11-29T20:26:28.612Z,63.12
2022-11-29T20:28:55.479Z,62.70
2022-11-29T20:31:23.218Z,62.93
2022-11-29T20:33:53.143Z,63.03
2022-11-29T20:36:38.758Z,63.00
2022-11-29T20:39:31.675Z,63.22
2022-11-29T20:42:26.128Z,63.54
2022-11-29T20:44:55.764Z,63.47
2022-11-29T20:47:25.009Z,63.02
2022-11-29T20:49:53.599Z,62.95
2022-11-29T20:52:48.708Z,62.92
2022-11-29T20:55:15.701Z,62.67
2022-11-29T20:57:42.439Z,62.82
2022-11-29T21:00:11.826Z,62.86
2022-11-29T21:02:39.154Z,62.83
2022-11-29T21:05:06.322Z,62.87
2022-11-29T21:07:33.318Z,62.56
2022-11-29T21:10:01.614Z,62.76
2022-11-29T21:12:29.808Z,63.35
2022-11-29T21:14:57.341Z,63.25
2022-11-29T21:17:28.775Z,63.50
2022-11-29T21:20:00.144Z,63.43
2022-11-29T21:22:39.180Z,62.93
2022-11-29T21:25:30.432Z,63.55
2022-11-29T21:27:57.717Z,63.79
2022-11-29T21:30:24.962Z,63.74
2022-11-29T21:32:52.294Z,63.94
2022-11-29T21:35:19.071Z,64.09
2022-11-29T21:37:46.431Z,64.18
2022-11-29T21:40:14.100Z,64.08
2022-11-29T21:42:41.077Z,64.11
2022-11-29T21:45:13.400Z,64.07
2022-11-29T21:47:42.131Z,64.25
2022-11-29T21:50:09.186Z,64.34
2022-11-29T21:52:36.076Z,64.44
2022-11-29T21:55:02.996Z,64.15
2022-11-29T21:57:29.737Z,64.22
2022-11-29T21:59:56.442Z,64.39
2022-11-29T22:02:23.344Z,64.29
2022-11-29T22:04:50.154Z,64.44
2022-11-29T22:07:16.900Z,64.60
2022-11-29T22:09:43.619Z,64.38
2022-11-29T22:12:32.496Z,64.34
2022-11-29T22:14:56.993Z,64.60
2022-11-29T22:17:23.823Z,64.48
2022-11-29T22:19:50.647Z,64.89
2022-11-29T22:22:17.312Z,64.87
2022-11-29T22:24:44.188Z,65.08
2022-11-29T22:27:12.407Z,65.30
2022-11-29T22:29:39.162Z,65.49
2022-11-29T22:32:06.157Z,65.71
2022-11-29T22:34:32.898Z,65.96
2022-11-29T22:36:59.596Z,66.03
2022-11-29T22:39:26.547Z,65.95
2022-11-29T22:41:54.964Z,66.17
2022-11-29T22:44:23.123Z,66.01
2022-11-29T22:46:50.612Z,66.15
2022-11-29T22:49:17.491Z,65.66
2022-11-29T22:51:44.354Z,65.35
2022-11-29T22:54:11.689Z,65.85
2022-11-29T22:56:41.061Z,65.50
2022-11-29T22:59:08.768Z,65.63
2022-11-29T23:01:38.073Z,65.51
2022-11-29T23:04:07.310Z,65.39
2022-11-29T23:06:35.394Z,65.30
2022-11-29T23:09:15.724Z,64.99
2022-11-29T23:11:45.041Z,64.85
2022-11-29T23:14:12.831Z,65.12
2022-11-29T23:16:39.982Z,65.39
2022-11-29T23:19:06.794Z,65.54
2022-11-29T23:21:36.392Z,65.43
2022-11-29T23:24:03.311Z,65.56
2022-11-29T23:26:36.308Z,65.91
2022-11-29T23:29:04.318Z,66.35
2022-11-29T23:31:31.583Z,66.30
2022-11-29T23:33:58.328Z,66.40
2022-11-29T23:36:25.262Z,66.36
2022-11-29T23:38:52.114Z,66.22
2022-11-29T23:41:18.891Z,65.94
2022-11-29T23:43:45.671Z,66.15
2022-11-29T23:46:15.805Z,66.23
2022-11-29T23:48:43.158Z,65.99
2022-11-29T23:51:13.061Z,66.12
2022-11-29T23:53:40.880Z,66.41
2022-11-29T23:56:14.211Z,66.52
2022-11-29T23:58:41.860Z,66.27
